sensor_id;sensor_type;location;lat;lon;timestamp;pressure;altitude;pressure_sealevel;temperature;humidity
27840;BME280;15207;42.182;24.308;2023-04-05T00:01:31;98562.97;;;6.14;71.82
27840;BME280;15207;42.182;24.308;2023-04-05T00:03:58;98557.41;;;6.05;72.32
27840;BME280;15207;42.182;24.308;2023-04-05T00:06:25;98555.81;;;6.03;72.36
27840;BME280;15207;42.182;24.308;2023-04-05T00:08:51;98556.84;;;6.13;71.72
27840;BME280;15207;42.182;24.308;2023-04-05T00:11:22;98563.59;;;6.17;71.44
27840;BME280;15207;42.182;24.308;2023-04-05T00:13:48;98559.28;;;6.03;71.68
27840;BME280;15207;42.182;24.308;2023-04-05T00:16:16;98556.44;;;6.06;71.93
27840;BME280;15207;42.182;24.308;2023-04-05T00:18:42;98556.53;;;6.05;72.48
27840;BME280;15207;42.182;24.308;2023-04-05T00:21:18;98551.13;;;5.93;73.24
27840;BME280;15207;42.182;24.308;2023-04-05T00:23:47;98559.28;;;5.90;73.08
27840;BME280;15207;42.182;24.308;2023-04-05T00:26:18;98557.91;;;5.85;72.92
27840;BME280;15207;42.182;24.308;2023-04-05T00:28:44;98557.91;;;5.98;73.58
27840;BME280;15207;42.182;24.308;2023-04-05T00:31:10;98561.09;;;5.90;73.32
27840;BME280;15207;42.182;24.308;2023-04-05T00:33:35;98561.00;;;5.91;73.79
27840;BME280;15207;42.182;24.308;2023-04-05T00:36:11;98569.31;;;5.87;73.48
27840;BME280;15207;42.182;24.308;2023-04-05T00:38:38;98567.47;;;6.00;73.46
27840;BME280;15207;42.182;24.308;2023-04-05T00:41:03;98572.38;;;5.93;73.25
27840;BME280;15207;42.182;24.308;2023-04-05T00:43:29;98568.22;;;5.89;73.71
27840;BME280;15207;42.182;24.308;2023-04-05T00:45:55;98560.06;;;5.92;74.04
27840;BME280;15207;42.182;24.308;2023-04-05T00:48:21;98566.00;;;5.96;73.41
27840;BME280;15207;42.182;24.308;2023-04-05T00:50:49;98570.91;;;5.89;73.04
27840;BME280;15207;42.182;24.308;2023-04-05T00:53:16;98568.97;;;5.91;73.27
27840;BME280;15207;42.182;24.308;2023-04-05T00:55:43;98569.94;;;5.90;73.31
27840;BME280;15207;42.182;24.308;2023-04-05T00:58:09;98573.88;;;5.85;72.90
27840;BME280;15207;42.182;24.308;2023-04-05T01:00:37;98578.47;;;5.69;73.66
27840;BME280;15207;42.182;24.308;2023-04-05T01:03:05;98576.69;;;5.70;74.02
27840;BME280;15207;42.182;24.308;2023-04-05T01:05:48;98568.28;;;5.63;73.94
27840;BME280;15207;42.182;24.308;2023-04-05T01:08:31;98571.47;;;5.68;73.79
27840;BME280;15207;42.182;24.308;2023-04-05T01:11:02;98576.78;;;5.68;73.91
27840;BME280;15207;42.182;24.308;2023-04-05T01:13:28;98577.72;;;5.54;73.67
27840;BME280;15207;42.182;24.308;2023-04-05T01:15:54;98573.06;;;5.45;74.69
27840;BME280;15207;42.182;24.308;2023-04-05T01:18:19;98583.78;;;5.56;74.32
27840;BME280;15207;42.182;24.308;2023-04-05T01:32:40;98585.81;;;5.40;74.12
27840;BME280;15207;42.182;24.308;2023-04-05T01:37:33;98585.78;;;5.27;74.34
27840;BME280;15207;42.182;24.308;2023-04-05T01:40:00;98591.97;;;5.14;74.30
27840;BME280;15207;42.182;24.308;2023-04-05T01:42:26;98588.88;;;5.21;74.22
27840;BME280;15207;42.182;24.308;2023-04-05T01:44:53;98594.50;;;5.16;75.07
27840;BME280;15207;42.182;24.308;2023-04-05T01:47:19;98592.28;;;5.23;74.95
27840;BME280;15207;42.182;24.308;2023-04-05T01:49:45;98592.06;;;5.26;75.13
27840;BME280;15207;42.182;24.308;2023-04-05T01:52:11;98598.44;;;5.23;74.62
27840;BME280;15207;42.182;24.308;2023-04-05T01:54:37;98602.59;;;5.27;74.67
27840;BME280;15207;42.182;24.308;2023-04-05T01:57:03;98600.34;;;5.21;74.00
27840;BME280;15207;42.182;24.308;2023-04-05T01:59:28;98595.59;;;5.26;73.86
27840;BME280;15207;42.182;24.308;2023-04-05T02:01:54;98602.91;;;5.10;73.99
27840;BME280;15207;42.182;24.308;2023-04-05T02:04:20;98601.69;;;5.01;73.83
27840;BME280;15207;42.182;24.308;2023-04-05T02:06:45;98601.25;;;4.94;73.70
27840;BME280;15207;42.182;24.308;2023-04-05T02:09:11;98612.41;;;4.99;74.18
27840;BME280;15207;42.182;24.308;2023-04-05T02:11:37;98602.44;;;4.90;73.99
27840;BME280;15207;42.182;24.308;2023-04-05T02:14:02;98607.59;;;4.92;73.94
27840;BME280;15207;42.182;24.308;2023-04-05T02:16:28;98613.38;;;4.98;73.52
27840;BME280;15207;42.182;24.308;2023-04-05T02:18:57;98615.91;;;5.00;73.43
27840;BME280;15207;42.182;24.308;2023-04-05T02:21:24;98613.78;;;4.92;72.81
27840;BME280;15207;42.182;24.308;2023-04-05T02:23:51;98624.34;;;4.79;73.48
27840;BME280;15207;42.182;24.308;2023-04-05T02:26:16;98625.25;;;4.93;73.86
27840;BME280;15207;42.182;24.308;2023-04-05T02:28:42;98612.09;;;4.91;74.09
27840;BME280;15207;42.182;24.308;2023-04-05T02:31:10;98621.19;;;4.87;74.52
27840;BME280;15207;42.182;24.308;2023-04-05T02:33:37;98621.22;;;5.00;73.93
27840;BME280;15207;42.182;24.308;2023-04-05T02:36:04;98614.50;;;4.94;73.56
27840;BME280;15207;42.182;24.308;2023-04-05T02:38:31;98619.31;;;5.02;73.69
27840;BME280;15207;42.182;24.308;2023-04-05T02:40:57;98620.81;;;5.06;74.35
27840;BME280;15207;42.182;24.308;2023-04-05T02:43:22;98612.34;;;5.14;74.30
27840;BME280;15207;42.182;24.308;2023-04-05T02:45:48;98615.13;;;5.12;74.07
27840;BME280;15207;42.182;24.308;2023-04-05T02:48:14;98606.91;;;5.15;73.97
27840;BME280;15207;42.182;24.308;2023-04-05T02:50:39;98610.72;;;5.11;74.00
27840;BME280;15207;42.182;24.308;2023-04-05T02:53:04;98600.13;;;5.11;74.36
27840;BME280;15207;42.182;24.308;2023-04-05T02:55:30;98610.00;;;5.22;73.92
27840;BME280;15207;42.182;24.308;2023-04-05T02:57:59;98616.72;;;5.28;73.34
27840;BME280;15207;42.182;24.308;2023-04-05T03:00:25;98619.91;;;5.33;74.13
27840;BME280;15207;42.182;24.308;2023-04-05T03:02:52;98621.41;;;5.37;73.83
27840;BME280;15207;42.182;24.308;2023-04-05T03:05:17;98619.81;;;5.35;73.37
27840;BME280;15207;42.182;24.308;2023-04-05T03:07:44;98623.19;;;5.37;73.36
27840;BME280;15207;42.182;24.308;2023-04-05T03:10:12;98627.66;;;5.49;72.70
27840;BME280;15207;42.182;24.308;2023-04-05T03:12:38;98630.00;;;5.54;72.32
27840;BME280;15207;42.182;24.308;2023-04-05T03:15:03;98626.06;;;5.60;72.56
27840;BME280;15207;42.182;24.308;2023-04-05T03:17:29;98630.66;;;5.71;72.45
27840;BME280;15207;42.182;24.308;2023-04-05T03:19:55;98625.97;;;5.74;72.38
27840;BME280;15207;42.182;24.308;2023-04-05T03:22:20;98638.06;;;5.78;72.01
27840;BME280;15207;42.182;24.308;2023-04-05T03:24:46;98634.69;;;5.89;72.06
27840;BME280;15207;42.182;24.308;2023-04-05T03:27:12;98634.97;;;5.85;72.21
27840;BME280;15207;42.182;24.308;2023-04-05T03:29:41;98637.25;;;5.78;71.91
27840;BME280;15207;42.182;24.308;2023-04-05T03:32:07;98637.97;;;5.80;71.46
27840;BME280;15207;42.182;24.308;2023-04-05T03:34:36;98641.78;;;5.89;72.08
27840;BME280;15207;42.182;24.308;2023-04-05T03:37:03;98641.25;;;5.83;71.74
27840;BME280;15207;42.182;24.308;2023-04-05T03:39:28;98640.19;;;5.86;72.34
27840;BME280;15207;42.182;24.308;2023-04-05T03:41:54;98631.59;;;5.69;70.72
27840;BME280;15207;42.182;24.308;2023-04-05T03:44:21;98642.44;;;5.79;71.20
27840;BME280;15207;42.182;24.308;2023-04-05T03:46:46;98642.31;;;5.81;70.59
27840;BME280;15207;42.182;24.308;2023-04-05T03:49:12;98642.66;;;5.89;70.20
27840;BME280;15207;42.182;24.308;2023-04-05T03:51:38;98649.34;;;5.82;70.64
27840;BME280;15207;42.182;24.308;2023-04-05T03:54:03;98646.47;;;5.85;70.48
27840;BME280;15207;42.182;24.308;2023-04-05T03:56:29;98654.25;;;5.88;70.79
27840;BME280;15207;42.182;24.308;2023-04-05T03:58:54;98649.22;;;5.96;70.08
27840;BME280;15207;42.182;24.308;2023-04-05T04:01:20;98651.69;;;5.87;69.02
27840;BME280;15207;42.182;24.308;2023-04-05T04:03:46;98650.84;;;5.73;68.50
27840;BME280;15207;42.182;24.308;2023-04-05T04:06:12;98658.81;;;5.60;70.00
27840;BME280;15207;42.182;24.308;2023-04-05T04:08:38;98662.94;;;5.51;70.68
27840;BME280;15207;42.182;24.308;2023-04-05T04:11:03;98671.66;;;5.53;70.14
27840;BME280;15207;42.182;24.308;2023-04-05T04:13:29;98665.06;;;5.46;70.32
27840;BME280;15207;42.182;24.308;2023-04-05T04:15:54;98670.69;;;5.41;70.06
27840;BME280;15207;42.182;24.308;2023-04-05T04:18:20;98670.59;;;5.43;70.08
27840;BME280;15207;42.182;24.308;2023-04-05T04:20:46;98672.28;;;5.44;70.54
27840;BME280;15207;42.182;24.308;2023-04-05T04:23:12;98671.13;;;5.61;70.00
27840;BME280;15207;42.182;24.308;2023-04-05T04:25:38;98678.88;;;5.51;70.02
27840;BME280;15207;42.182;24.308;2023-04-05T04:28:05;98670.69;;;5.54;70.08
27840;BME280;15207;42.182;24.308;2023-04-05T04:30:32;98682.94;;;5.70;69.59
27840;BME280;15207;42.182;24.308;2023-04-05T04:33:00;98681.88;;;5.73;69.98
27840;BME280;15207;42.182;24.308;2023-04-05T04:35:28;98681.03;;;5.72;68.81
27840;BME280;15207;42.182;24.308;2023-04-05T04:42:54;98691.09;;;5.54;70.49
27840;BME280;15207;42.182;24.308;2023-04-05T04:45:23;98691.44;;;5.62;69.11
27840;BME280;15207;42.182;24.308;2023-04-05T04:47:49;98701.22;;;5.62;69.74
27840;BME280;15207;42.182;24.308;2023-04-05T04:50:17;98701.84;;;5.65;68.69
27840;BME280;15207;42.182;24.308;2023-04-05T04:52:44;98701.84;;;5.65;68.75
27840;BME280;15207;42.182;24.308;2023-04-05T04:55:11;98706.31;;;5.65;68.32
27840;BME280;15207;42.182;24.308;2023-04-05T04:57:40;98701.22;;;5.62;68.10
27840;BME280;15207;42.182;24.308;2023-04-05T05:00:07;98696.09;;;5.72;68.20
27840;BME280;15207;42.182;24.308;2023-04-05T05:02:37;98701.94;;;5.64;68.16
27840;BME280;15207;42.182;24.308;2023-04-05T05:05:03;98695.13;;;5.60;68.87
27840;BME280;15207;42.182;24.308;2023-04-05T05:07:28;98700.16;;;5.77;69.04
27840;BME280;15207;42.182;24.308;2023-04-05T05:09:54;98713.13;;;5.82;67.34
27840;BME280;15207;42.182;24.308;2023-04-05T05:12:20;98708.75;;;5.81;66.54
27840;BME280;15207;42.182;24.308;2023-04-05T05:14:46;98710.34;;;5.83;66.08
27840;BME280;15207;42.182;24.308;2023-04-05T05:17:11;98711.75;;;5.89;66.99
27840;BME280;15207;42.182;24.308;2023-04-05T05:19:37;98711.84;;;5.88;66.15
27840;BME280;15207;42.182;24.308;2023-04-05T05:22:03;98716.88;;;5.92;65.41
27840;BME280;15207;42.182;24.308;2023-04-05T05:24:28;98718.34;;;5.96;65.34
27840;BME280;15207;42.182;24.308;2023-04-05T05:26:54;98713.81;;;6.12;64.67
27840;BME280;15207;42.182;24.308;2023-04-05T05:29:20;98723.56;;;6.11;64.88
27840;BME280;15207;42.182;24.308;2023-04-05T05:31:45;98728.91;;;6.11;65.65
27840;BME280;15207;42.182;24.308;2023-04-05T05:34:11;98719.22;;;6.10;65.73
27840;BME280;15207;42.182;24.308;2023-04-05T05:36:36;98740.38;;;6.25;63.78
27840;BME280;15207;42.182;24.308;2023-04-05T05:39:02;98736.66;;;6.14;63.84
27840;BME280;15207;42.182;24.308;2023-04-05T05:41:30;98737.09;;;6.21;63.54
27840;BME280;15207;42.182;24.308;2023-04-05T05:43:55;98737.63;;;6.26;63.39
27840;BME280;15207;42.182;24.308;2023-04-05T05:46:21;98731.44;;;6.26;63.34
27840;BME280;15207;42.182;24.308;2023-04-05T05:48:46;98738.69;;;6.37;63.07
27840;BME280;15207;42.182;24.308;2023-04-05T05:51:12;98741.25;;;6.25;63.93
27840;BME280;15207;42.182;24.308;2023-04-05T05:53:38;98743.34;;;6.46;63.03
27840;BME280;15207;42.182;24.308;2023-04-05T05:56:05;98745.59;;;6.39;61.89
27840;BME280;15207;42.182;24.308;2023-04-05T05:58:31;98743.56;;;6.43;61.95
27840;BME280;15207;42.182;24.308;2023-04-05T06:00:58;98744.00;;;6.37;61.75
27840;BME280;15207;42.182;24.308;2023-04-05T06:03:24;98736.63;;;6.40;61.15
27840;BME280;15207;42.182;24.308;2023-04-05T06:05:54;98737.38;;;6.42;61.56
27840;BME280;15207;42.182;24.308;2023-04-05T06:08:21;98736.31;;;6.45;61.86
27840;BME280;15207;42.182;24.308;2023-04-05T06:10:47;98743.22;;;6.47;61.00
27840;BME280;15207;42.182;24.308;2023-04-05T06:13:12;98750.25;;;6.48;60.37
27840;BME280;15207;42.182;24.308;2023-04-05T06:15:38;98748.97;;;6.41;61.20
27840;BME280;15207;42.182;24.308;2023-04-05T06:18:04;98758.47;;;6.32;60.16
27840;BME280;15207;42.182;24.308;2023-04-05T06:20:29;98744.00;;;6.37;61.23
27840;BME280;15207;42.182;24.308;2023-04-05T06:22:55;98756.00;;;6.42;60.59
27840;BME280;15207;42.182;24.308;2023-04-05T06:25:20;98755.88;;;6.44;61.07
27840;BME280;15207;42.182;24.308;2023-04-05T06:27:46;98763.56;;;6.35;61.40
27840;BME280;15207;42.182;24.308;2023-04-05T06:30:12;98761.00;;;6.47;61.78
27840;BME280;15207;42.182;24.308;2023-04-05T06:32:38;98765.34;;;6.61;60.53
27840;BME280;15207;42.182;24.308;2023-04-05T06:35:04;98767.34;;;6.70;59.88
27840;BME280;15207;42.182;24.308;2023-04-05T06:37:31;98765.00;;;6.79;59.36
27840;BME280;15207;42.182;24.308;2023-04-05T06:39:58;98769.53;;;6.90;59.89
27840;BME280;15207;42.182;24.308;2023-04-05T06:42:23;98775.78;;;7.01;59.42
27840;BME280;15207;42.182;24.308;2023-04-05T06:44:49;98775.91;;;6.87;59.67
27840;BME280;15207;42.182;24.308;2023-04-05T06:47:15;98780.47;;;6.98;58.12
27840;BME280;15207;42.182;24.308;2023-04-05T06:49:40;98786.84;;;7.08;58.73
27840;BME280;15207;42.182;24.308;2023-04-05T06:52:06;98786.38;;;7.14;57.01
27840;BME280;15207;42.182;24.308;2023-04-05T06:54:33;98786.06;;;7.19;57.32
27840;BME280;15207;42.182;24.308;2023-04-05T06:56:59;98798.63;;;7.17;57.20
27840;BME280;15207;42.182;24.308;2023-04-05T06:59:26;98795.69;;;7.09;56.13
27840;BME280;15207;42.182;24.308;2023-04-05T07:01:52;98803.94;;;7.17;56.23
27840;BME280;15207;42.182;24.308;2023-04-05T07:04:17;98800.72;;;7.25;55.60
27840;BME280;15207;42.182;24.308;2023-04-05T07:06:43;98812.59;;;7.08;55.79
27840;BME280;15207;42.182;24.308;2023-04-05T07:09:08;98812.06;;;7.16;57.37
27840;BME280;15207;42.182;24.308;2023-04-05T07:11:34;98813.88;;;7.15;56.25
27840;BME280;15207;42.182;24.308;2023-04-05T07:14:00;98816.47;;;7.28;57.10
27840;BME280;15207;42.182;24.308;2023-04-05T07:16:26;98813.66;;;7.43;57.22
27840;BME280;15207;42.182;24.308;2023-04-05T07:18:52;98816.25;;;7.56;54.62
27840;BME280;15207;42.182;24.308;2023-04-05T07:21:20;98823.28;;;7.57;55.19
27840;BME280;15207;42.182;24.308;2023-04-05T07:23:45;98823.88;;;7.73;55.06
27840;BME280;15207;42.182;24.308;2023-04-05T07:26:11;98828.34;;;7.73;56.33
27840;BME280;15207;42.182;24.308;2023-04-05T07:28:36;98826.91;;;7.80;55.75
27840;BME280;15207;42.182;24.308;2023-04-05T07:31:04;98830.41;;;7.80;53.89
27840;BME280;15207;42.182;24.308;2023-04-05T07:33:30;98820.97;;;7.88;53.66
27840;BME280;15207;42.182;24.308;2023-04-05T07:35:55;98829.56;;;7.80;52.69
27840;BME280;15207;42.182;24.308;2023-04-05T07:38:21;98829.22;;;7.85;53.17
27840;BME280;15207;42.182;24.308;2023-04-05T07:40:48;98833.00;;;7.93;54.49
27840;BME280;15207;42.182;24.308;2023-04-05T07:43:15;98836.34;;;8.09;52.79
27840;BME280;15207;42.182;24.308;2023-04-05T07:45:40;98835.50;;;8.19;53.19
27840;BME280;15207;42.182;24.308;2023-04-05T07:48:06;98838.53;;;8.15;52.68
27840;BME280;15207;42.182;24.308;2023-04-05T07:50:33;98832.69;;;8.10;51.68
27840;BME280;15207;42.182;24.308;2023-04-05T07:52:59;98833.59;;;8.33;53.51
27840;BME280;15207;42.182;24.308;2023-04-05T07:55:24;98841.13;;;8.39;51.82
27840;BME280;15207;42.182;24.308;2023-04-05T07:57:52;98848.16;;;8.40;50.75
27840;BME280;15207;42.182;24.308;2023-04-05T08:00:19;98841.91;;;8.53;50.71
27840;BME280;15207;42.182;24.308;2023-04-05T08:02:45;98847.94;;;8.43;50.88
27840;BME280;15207;42.182;24.308;2023-04-05T08:05:11;98845.66;;;8.62;51.32
27840;BME280;15207;42.182;24.308;2023-04-05T08:07:36;98860.22;;;8.57;49.29
27840;BME280;15207;42.182;24.308;2023-04-05T08:10:02;98857.09;;;8.64;50.88
27840;BME280;15207;42.182;24.308;2023-04-05T08:12:29;98859.78;;;8.64;50.12
27840;BME280;15207;42.182;24.308;2023-04-05T08:14:55;98863.56;;;8.48;49.75
27840;BME280;15207;42.182;24.308;2023-04-05T08:17:20;98862.97;;;8.44;51.09
27840;BME280;15207;42.182;24.308;2023-04-05T08:19:46;98864.66;;;8.45;51.71
27840;BME280;15207;42.182;24.308;2023-04-05T08:22:11;98856.72;;;8.57;51.22
27840;BME280;15207;42.182;24.308;2023-04-05T08:24:37;98864.34;;;8.62;51.18
27840;BME280;15207;42.182;24.308;2023-04-05T08:27:03;98861.31;;;8.55;51.40
27840;BME280;15207;42.182;24.308;2023-04-05T08:29:28;98869.53;;;8.52;50.53
27840;BME280;15207;42.182;24.308;2023-04-05T08:31:55;98863.44;;;8.38;50.83
27840;BME280;15207;42.182;24.308;2023-04-05T08:34:22;98874.63;;;8.43;51.01
27840;BME280;15207;42.182;24.308;2023-04-05T08:36:48;98868.41;;;8.43;51.95
27840;BME280;15207;42.182;24.308;2023-04-05T08:39:13;98868.41;;;8.43;52.58
27840;BME280;15207;42.182;24.308;2023-04-05T08:41:40;98872.84;;;8.55;53.05
27840;BME280;15207;42.182;24.308;2023-04-05T08:44:09;98874.91;;;8.63;50.68
27840;BME280;15207;42.182;24.308;2023-04-05T08:46:35;98885.34;;;8.55;50.89
27840;BME280;15207;42.182;24.308;2023-04-05T08:49:06;98881.31;;;8.49;50.62
27840;BME280;15207;42.182;24.308;2023-04-05T08:51:32;98882.13;;;8.50;50.71
27840;BME280;15207;42.182;24.308;2023-04-05T08:53:58;98881.31;;;8.49;50.64
27840;BME280;15207;42.182;24.308;2023-04-05T08:56:31;98880.06;;;8.42;51.09
27840;BME280;15207;42.182;24.308;2023-04-05T08:59:01;98889.31;;;8.49;50.48
27840;BME280;15207;42.182;24.308;2023-04-05T09:01:31;98892.28;;;8.69;50.86
27840;BME280;15207;42.182;24.308;2023-04-05T09:04:04;98886.09;;;8.68;49.61
27840;BME280;15207;42.182;24.308;2023-04-05T09:06:30;98884.78;;;8.85;50.15
27840;BME280;15207;42.182;24.308;2023-04-05T09:08:57;98882.34;;;8.82;49.20
27840;BME280;15207;42.182;24.308;2023-04-05T09:11:23;98889.97;;;8.76;50.35
27840;BME280;15207;42.182;24.308;2023-04-05T09:13:49;98892.63;;;8.76;50.79
27840;BME280;15207;42.182;24.308;2023-04-05T09:16:18;98896.66;;;8.93;50.13
27840;BME280;15207;42.182;24.308;2023-04-05T09:18:44;98894.00;;;8.93;49.72
27840;BME280;15207;42.182;24.308;2023-04-05T09:21:10;98906.84;;;8.76;50.05
27840;BME280;15207;42.182;24.308;2023-04-05T09:23:36;98911.22;;;8.77;49.24
27840;BME280;15207;42.182;24.308;2023-04-05T09:26:23;98908.16;;;8.70;49.28
27840;BME280;15207;42.182;24.308;2023-04-05T09:28:49;98912.78;;;8.68;49.69
27840;BME280;15207;42.182;24.308;2023-04-05T09:31:35;98905.03;;;8.88;50.28
27840;BME280;15207;42.182;24.308;2023-04-05T09:34:02;98899.59;;;9.01;50.53
27840;BME280;15207;42.182;24.308;2023-04-05T09:36:29;98907.47;;;9.03;50.52
27840;BME280;15207;42.182;24.308;2023-04-05T09:39:08;98906.63;;;9.25;50.07
27840;BME280;15207;42.182;24.308;2023-04-05T09:41:35;98902.03;;;9.04;49.36
27840;BME280;15207;42.182;24.308;2023-04-05T09:44:01;98900.06;;;8.95;50.03
27840;BME280;15207;42.182;24.308;2023-04-05T09:46:29;98897.63;;;8.92;51.26
27840;BME280;15207;42.182;24.308;2023-04-05T09:48:56;98897.75;;;8.90;49.28
27840;BME280;15207;42.182;24.308;2023-04-05T09:51:21;98897.91;;;8.89;50.53
27840;BME280;15207;42.182;24.308;2023-04-05T09:53:57;98894.25;;;8.90;51.47
27840;BME280;15207;42.182;24.308;2023-04-05T09:56:25;98904.19;;;8.88;50.23
27840;BME280;15207;42.182;24.308;2023-04-05T09:58:51;98904.53;;;9.06;51.67
27840;BME280;15207;42.182;24.308;2023-04-05T10:01:18;98896.31;;;8.97;50.42
27840;BME280;15207;42.182;24.308;2023-04-05T10:03:48;98898.25;;;8.95;49.79
27840;BME280;15207;42.182;24.308;2023-04-05T10:06:17;98903.47;;;8.97;50.07
27840;BME280;15207;42.182;24.308;2023-04-05T10:08:47;98901.28;;;9.02;49.46
27840;BME280;15207;42.182;24.308;2023-04-05T10:11:17;98893.63;;;9.09;50.21
27840;BME280;15207;42.182;24.308;2023-04-05T10:13:43;98891.66;;;9.11;50.31
27840;BME280;15207;42.182;24.308;2023-04-05T10:16:12;98896.91;;;9.24;49.82
27840;BME280;15207;42.182;24.308;2023-04-05T10:18:50;98895.44;;;9.31;48.74
27840;BME280;15207;42.182;24.308;2023-04-05T10:21:22;98897.00;;;9.45;48.82
27840;BME280;15207;42.182;24.308;2023-04-05T10:23:54;98891.56;;;9.35;50.46
27840;BME280;15207;42.182;24.308;2023-04-05T10:29:08;98888.88;;;9.35;50.55
27840;BME280;15207;42.182;24.308;2023-04-05T10:31:58;98907.59;;;9.35;50.59
27840;BME280;15207;42.182;24.308;2023-04-05T10:34:41;98897.88;;;9.34;50.43
27840;BME280;15207;42.182;24.308;2023-04-05T10:37:23;98896.16;;;9.45;50.75
27840;BME280;15207;42.182;24.308;2023-04-05T10:39:55;98899.53;;;9.47;51.60
27840;BME280;15207;42.182;24.308;2023-04-05T10:42:35;98897.47;;;9.50;51.03
27840;BME280;15207;42.182;24.308;2023-04-05T10:45:05;98901.97;;;9.50;50.99
27840;BME280;15207;42.182;24.308;2023-04-05T10:47:37;98899.66;;;9.57;51.16
27840;BME280;15207;42.182;24.308;2023-04-05T10:50:08;98896.09;;;9.68;51.93
27840;BME280;15207;42.182;24.308;2023-04-05T10:52:38;98896.44;;;9.74;51.80
27840;BME280;15207;42.182;24.308;2023-04-05T10:55:05;98897.19;;;9.76;50.81
27840;BME280;15207;42.182;24.308;2023-04-05T10:57:33;98903.28;;;9.67;51.16
27840;BME280;15207;42.182;24.308;2023-04-05T10:59:59;98902.31;;;9.68;51.20
27840;BME280;15207;42.182;24.308;2023-04-05T11:02:27;98898.16;;;9.64;50.90
27840;BME280;15207;42.182;24.308;2023-04-05T11:04:54;98898.69;;;9.58;51.19
27840;BME280;15207;42.182;24.308;2023-04-05T11:07:21;98897.72;;;9.36;51.68
27840;BME280;15207;42.182;24.308;2023-04-05T11:09:58;98902.75;;;9.29;53.65
27840;BME280;15207;42.182;24.308;2023-04-05T11:18:19;98906.47;;;9.49;50.09
27840;BME280;15207;42.182;24.308;2023-04-05T11:20:53;98901.97;;;9.38;51.77
27840;BME280;15207;42.182;24.308;2023-04-05T11:23:23;98901.84;;;9.51;51.08
27840;BME280;15207;42.182;24.308;2023-04-05T11:25:54;98906.69;;;9.58;51.50
27840;BME280;15207;42.182;24.308;2023-04-05T11:28:28;98898.09;;;9.43;50.46
27840;BME280;15207;42.182;24.308;2023-04-05T11:30:55;98896.06;;;9.23;49.96
27840;BME280;15207;42.182;24.308;2023-04-05T11:36:06;98895.88;;;9.48;49.93
27840;BME280;15207;42.182;24.308;2023-04-05T11:38:32;98894.56;;;9.31;49.38
27840;BME280;15207;42.182;24.308;2023-04-05T11:43:32;98895.19;;;9.46;50.23
27840;BME280;15207;42.182;24.308;2023-04-05T11:46:01;98896.38;;;9.64;50.11
27840;BME280;15207;42.182;24.308;2023-04-05T11:48:28;98896.19;;;9.77;48.04
27840;BME280;15207;42.182;24.308;2023-04-05T11:50:56;98894.09;;;9.37;47.85
27840;BME280;15207;42.182;24.308;2023-04-05T11:53:21;98894.19;;;9.47;48.62
27840;BME280;15207;42.182;24.308;2023-04-05T11:55:49;98896.88;;;9.47;48.58
27840;BME280;15207;42.182;24.308;2023-04-05T11:58:23;98899.66;;;9.57;48.50
27840;BME280;15207;42.182;24.308;2023-04-05T12:00:59;98909.22;;;9.71;48.80
27840;BME280;15207;42.182;24.308;2023-04-05T12:03:26;98901.72;;;9.64;48.68
27840;BME280;15207;42.182;24.308;2023-04-05T12:05:56;98902.53;;;9.65;49.66
27840;BME280;15207;42.182;24.308;2023-04-05T12:08:22;98901.19;;;9.71;49.29
27840;BME280;15207;42.182;24.308;2023-04-05T12:10:58;98906.28;;;9.74;51.22
27840;BME280;15207;42.182;24.308;2023-04-05T12:13:31;98907.00;;;9.76;49.82
27840;BME280;15207;42.182;24.308;2023-04-05T12:15:58;98899.63;;;9.68;51.35
27840;BME280;15207;42.182;24.308;2023-04-05T12:18:25;98902.38;;;9.89;51.17
27840;BME280;15207;42.182;24.308;2023-04-05T12:20:54;98899.06;;;9.97;50.13
27840;BME280;15207;42.182;24.308;2023-04-05T12:23:20;98901.56;;;10.10;49.85
27840;BME280;15207;42.182;24.308;2023-04-05T12:25:47;98901.94;;;10.27;48.68
27840;BME280;15207;42.182;24.308;2023-04-05T12:28:13;98892.59;;;10.21;48.00
27840;BME280;15207;42.182;24.308;2023-04-05T12:30:55;98899.81;;;10.42;48.22
27840;BME280;15207;42.182;24.308;2023-04-05T12:33:31;98890.75;;;10.54;47.62
27840;BME280;15207;42.182;24.308;2023-04-05T12:36:03;98887.78;;;10.79;47.08
27840;BME280;15207;42.182;24.308;2023-04-05T12:38:29;98881.19;;;10.83;46.50
27840;BME280;15207;42.182;24.308;2023-04-05T12:41:01;98888.06;;;11.07;46.87
27840;BME280;15207;42.182;24.308;2023-04-05T12:43:47;98885.69;;;11.14;46.29
27840;BME280;15207;42.182;24.308;2023-04-05T12:46:15;98880.22;;;11.15;45.46
27840;BME280;15207;42.182;24.308;2023-04-05T12:48:42;98877.81;;;11.22;45.51
27840;BME280;15207;42.182;24.308;2023-04-05T12:51:14;98886.13;;;11.19;45.33
27840;BME280;15207;42.182;24.308;2023-04-05T12:53:44;98889.38;;;11.13;45.06
27840;BME280;15207;42.182;24.308;2023-04-05T12:56:11;98885.38;;;11.07;45.22
27840;BME280;15207;42.182;24.308;2023-04-05T12:58:37;98890.06;;;11.15;44.71
27840;BME280;15207;42.182;24.308;2023-04-05T13:01:04;98884.81;;;11.03;45.46
27840;BME280;15207;42.182;24.308;2023-04-05T13:03:30;98883.38;;;10.99;45.20
27840;BME280;15207;42.182;24.308;2023-04-05T13:05:56;98887.50;;;11.03;46.10
27840;BME280;15207;42.182;24.308;2023-04-05T13:08:22;98885.19;;;10.98;46.74
27840;BME280;15207;42.182;24.308;2023-04-05T13:10:48;98882.69;;;10.97;45.57
27840;BME280;15207;42.182;24.308;2023-04-05T13:13:18;98881.94;;;10.95;46.35
27840;BME280;15207;42.182;24.308;2023-04-05T13:15:45;98884.97;;;11.11;46.50
27840;BME280;15207;42.182;24.308;2023-04-05T13:18:11;98877.91;;;11.10;44.41
27840;BME280;15207;42.182;24.308;2023-04-05T13:20:41;98884.16;;;11.21;45.07
27840;BME280;15207;42.182;24.308;2023-04-05T13:23:07;98881.47;;;11.11;46.61
27840;BME280;15207;42.182;24.308;2023-04-05T13:25:36;98880.22;;;11.15;45.48
27840;BME280;15207;42.182;24.308;2023-04-05T13:28:01;98886.03;;;11.30;45.20
27840;BME280;15207;42.182;24.308;2023-04-05T13:30:27;98889.13;;;11.26;45.42
27840;BME280;15207;42.182;24.308;2023-04-05T13:32:54;98894.72;;;11.13;45.29
27840;BME280;15207;42.182;24.308;2023-04-05T13:35:21;98884.94;;;11.02;44.84